Weather observations for the past three days for
Casper, Natrona County International Airport
Imperial (Metric)
Date Time (mdt) Wind (mph) Vis. (mi.) Weather Sky Cond. Temperature (ºF) Relative Humidity Wind Chill (°F) Heat Index (°F) Pressure Precipitation (in)
Air Dwpt 6 hour altimeter (in) sea level (mb) 1 hr 3 hr 6 hr
Max. Min.
03 15:53 N 16 G 25 10.00 Partly Cloudy SCT110 66.9 21 17% 29.88 1008.6
03 14:53 N 29 G 37 10.00 Mostly Cloudy and Windy BKN110 72 23 16% 29.89 1008.1
03 13:53 W 10 G 28 10.00 Fair CLR 71.1 21.9 16% 29.92 1008.4
03 12:53 NW 10 G 16 10.00 Fair CLR 66.9 27 22% 29.95 1010.2
03 11:53 SW 7 10.00 Fair CLR 63 30 63 30 29% 29.99 1012.2
03 10:53 SW 8 10.00 Fair CLR 57.9 30.9 36% 30.01 1012.3
03 09:53 SW 6 10.00 Fair CLR 55 33.1 44% 30.02 1013.8
03 08:53 Calm 10.00 Fair CLR 51.1 32 48% 30.04 1015.1
03 07:53 W 3 10.00 Fair CLR 46 33.1 61% 30.05 1014.4
03 06:53 Calm 10.00 Fair CLR 37 30 76% 30.04 1014.4
03 05:53 NW 7 10.00 Fair CLR 33.1 28 45 32 82% 28 30.02 1013.6
03 04:53 NW 9 10.00 Fair CLR 34 28 79% 27 30.02 1013.3
03 03:53 NW 7 10.00 Fair CLR 35.1 28 76% 30 30.02 1013.2
03 02:53 Calm 10.00 Fair CLR 39.9 28.9 65% 30.01 1012.4
03 01:53 N 14 10.00 Fair CLR 44.1 30 58% 38 30.02 1012.4
03 00:53 N 10 10.00 Fair CLR 42.1 30 62% 37 30.03 1013.0
02 23:53 N 12 10.00 Fair CLR 41 28 70 39.9 60% 35 30.03 1013.5
02 22:53 E 9 10.00 Fair CLR 51.1 25 36% 30.03 1012.6
02 21:53 NE 9 10.00 Fair CLR 46.9 24.1 41% 43 30.02 1013.0
02 20:53 NW 3 10.00 Fair CLR 45 21 39% 30 1013.1
02 19:53 NW 6 10.00 Fair CLR 57 17.1 21% 29.99 1012.2
02 18:53 NW 10 10.00 Fair CLR 62.1 12 14% 29.99 1012.4
02 17:53 NW 13 G 18 10.00 Fair CLR 70 7 72 66.9 8% 30 1012.8
02 16:53 W 14 G 23 10.00 Fair CLR 71.1 10 9% 30.01 1013.0
02 15:53 W 14 G 21 10.00 Fair CLR 71.1 10 9% 30.04 1013.7
02 14:53 NW 22 G 30 10.00 Fair and Breezy CLR 71.1 12 10% 30.06 1014.5
02 13:53 W 20 G 26 10.00 Fair CLR 70 12.9 11% 30.07 1014.9
02 12:53 W 16 G 23 10.00 Fair CLR 69.1 14 12% 30.09 1016.2
02 11:53 SW 14 G 18 10.00 Fair CLR 66.9 15.1 68 34 13% 30.11 1016.9
02 10:53 SW 12 G 24 10.00 Fair CLR 63 21.9 21% 30.14 1017.9
02 09:53 SW 15 10.00 Fair CLR 60.1 24.1 25% 30.14 1017.9
02 08:53 SW 15 10.00 Fair CLR 55 23 29% 30.15 1018.4
02 07:53 SW 13 10.00 Fair CLR 46.9 25 42% 42 30.15 1018.4
02 06:53 SW 9 10.00 Fair CLR 39.9 25 55% 34 30.14 1018.5
02 05:53 SW 9 10.00 Fair CLR 33.1 21.9 36 28.9 64% 26 30.14 1018.8
02 04:53 SW 8 10.00 Fair CLR 35.1 23 61% 29 30.14 1018.8
02 03:53 SW 7 10.00 Fair CLR 35.1 23 61% 30 30.15 1019.0
02 02:53 SW 7 10.00 Fair CLR 34 24.1 67% 29 30.14 1018.6
02 01:53 W 5 10.00 Fair CLR 36 24.1 62% 33 30.16 1019.3
02 00:53 SW 5 10.00 Fair CLR 30.9 24.1 76% 27 30.17 1020.5
01 23:53 N 5 10.00 Fair CLR 35.1 25 61 33.1 67% 32 30.16 1020.2
01 22:53 Calm 10.00 Fair CLR 37 25 62% 30.17 1020.3
01 21:53 Calm 10.00 Fair CLR 42.1 25 51% 30.16 1019.6
01 20:53 NE 7 10.00 Fair CLR 44.1 25 47% 41 30.14 1019.4
01 19:53 N 7 10.00 Fair CLR 52 23 32% 30.12 1018.6
01 18:53 Calm 10.00 A Few Clouds FEW100 55.9 21 26% 30.11 1018.4
01 17:53 N 8 10.00 A Few Clouds FEW100 61 19.9 63 54 20% 30.1 1018.3
01 16:53 NE 9 10.00 Overcast OVC100 60.1 19.9 21% 30.1 1018.4
01 15:53 NW 10 G 16 10.00 Overcast OVC100 60.1 18 19% 30.11 1018.6
01 14:53 Vrbl 7 10.00 Partly Cloudy SCT090 61 18 19% 30.13 1018.7
01 13:53 Vrbl 6 10.00 Fair CLR 60.1 17.1 19% 30.13 1019.0
01 12:53 Vrbl 5 10.00 Fair CLR 55.9 18 22% 30.14 1019.8
01 11:53 Vrbl 5 10.00 Fair CLR 54 17.1 55.9 25 23% 30.16 1019.9
01 10:53 N 8 10.00 Fair CLR 53.1 17.1 24% 30.16 1019.8
01 09:53 SW 13 10.00 Fair CLR 51.1 23 33% 30.17 1019.9
01 08:53 SW 14 10.00 Fair CLR 45 25 46% 39 30.17 1020.6
01 07:53 SW 10 10.00 Fair CLR 37.9 26.1 62% 32 30.16 1020.8
01 06:53 W 9 10.00 Fair CLR 30.9 25 79% 24 30.16 1020.6
01 05:53 W 8 10.00 Fair CLR 26.1 21 35.1 25 81% 18 30.15 1020.9
01 04:53 W 6 10.00 Fair CLR 26.1 21 81% 20 30.15 1021.1
01 03:53 W 5 10.00 Fair CLR 28 21.9 78% 24 30.15 1020.9
01 02:53 Calm 10.00 Fair CLR 28 23 81% 30.15 1021.2
01 01:53 NW 7 10.00 Fair CLR 28.9 23 78% 23 30.16 1021.2
01 00:53 NW 8 10.00 Fair CLR 30 24.1 79% 23 30.17 1021.5
30 23:53 W 5 10.00 Fair CLR 35.1 25 54 33.1 67% 32 30.16 1021.4
30 22:53 Calm 10.00 Partly Cloudy SCT085 39 25 57% 30.16 1020.5
30 21:53 N 8 10.00 Overcast OVC090 39.9 26.1 58% 35 30.15 1020.4
30 20:53 NE 9 10.00 Mostly Cloudy BKN100 43 23 45% 38 30.14 1019.9
30 19:53 N 5 10.00 Mostly Cloudy BKN095 45 24.1 44% 43 30.12 1019.3
30 18:53 NE 5 10.00 Mostly Cloudy BKN090 52 16 24% 30.11 1018.1
30 17:53 N 9 10.00 Partly Cloudy SCT080 53.1 18 55 45 25% 30.1 1018.3
30 16:53 NE 12 G 17 10.00 Overcast OVC080 54 19 25% 30.1 1017.7
Date Time (mdt) Wind (mph) Vis. (mi.) Weather Sky Cond. Air Dwpt Max. Min. Relative Humidity Wind Chill (°F) Heat Index (°F) altimeter (in) sea level (mb) 1 hr 3 hr 6 hr
6 hour
Temperature (ºF) Pressure Precipitation (in)